Time;durP1;ratioP1;P1;durP2;ratioP2;P2;SDS_P1;SDS_P2;PMS_P1;PMS_P2;Temp;Humidity;BMP_temperature;BMP_pressure;BME280_temperature;BME280_humidity;BME280_pressure;Samples;Min_cycle;Max_cycle;Signal;HPM_P1;HPM_P2
2019/08/07 00:00:09;;;;;;;1.95;1.77;;;;;;;23.52;57.18;99953.54;;;;-56
2019/08/07 00:03:15;;;;;;;1.99;1.73;;;;;;;23.52;57.15;99950.11;;;;-60
2019/08/07 00:06:09;;;;;;;2.91;2.05;;;;;;;23.51;57.20;99949.81;;;;-51
2019/08/07 00:09:09;;;;;;;2.06;1.86;;;;;;;23.51;57.18;99939.80;;;;-51
2019/08/07 00:12:09;;;;;;;1.94;1.80;;;;;;;23.51;57.18;99928.91;;;;-59
2019/08/07 00:15:09;;;;;;;2.27;1.92;;;;;;;23.50;57.16;99924.70;;;;-60
2019/08/07 00:18:09;;;;;;;2.40;1.93;;;;;;;23.50;57.17;99926.53;;;;-51
2019/08/07 00:21:09;;;;;;;2.00;1.90;;;;;;;23.50;57.21;99925.28;;;;-51
2019/08/07 00:24:09;;;;;;;5.44;1.78;;;;;;;23.50;57.19;99916.02;;;;-56
2019/08/07 00:27:08;;;;;;;2.07;1.79;;;;;;;23.49;57.16;99915.15;;;;-57
2019/08/07 00:30:08;;;;;;;2.45;2.00;;;;;;;23.49;57.22;99920.03;;;;-56
2019/08/07 00:33:15;;;;;;;1.81;1.71;;;;;;;23.49;57.22;99923.74;;;;-50
2019/08/07 00:36:09;;;;;;;2.55;1.88;;;;;;;23.50;57.19;99917.70;;;;-60
2019/08/07 00:39:09;;;;;;;1.90;1.80;;;;;;;23.49;57.21;99916.84;;;;-52
2019/08/07 00:42:09;;;;;;;1.80;1.70;;;;;;;23.48;57.23;99916.91;;;;-51
2019/08/07 00:45:09;;;;;;;2.03;1.81;;;;;;;23.49;57.20;99908.67;;;;-60
2019/08/07 00:48:09;;;;;;;1.75;1.65;;;;;;;23.48;57.17;99892.55;;;;-50
2019/08/07 00:51:09;;;;;;;1.90;1.77;;;;;;;23.48;57.20;99890.12;;;;-51
2019/08/07 00:54:09;;;;;;;2.00;1.79;;;;;;;23.48;57.21;99892.89;;;;-49
2019/08/07 00:57:09;;;;;;;2.21;1.83;;;;;;;23.48;57.21;99895.74;;;;-51
2019/08/07 01:00:09;;;;;;;1.93;1.80;;;;;;;23.47;57.19;99891.68;;;;-60
2019/08/07 01:03:09;;;;;;;1.81;1.70;;;;;;;23.47;57.21;99891.34;;;;-50
2019/08/07 01:06:09;;;;;;;2.11;1.89;;;;;;;23.47;57.22;99893.87;;;;-60
2019/08/07 01:09:09;;;;;;;1.83;1.72;;;;;;;23.47;57.23;99887.98;;;;-60
2019/08/07 01:12:09;;;;;;;2.10;1.90;;;;;;;23.46;57.22;99885.36;;;;-60
2019/08/07 01:15:09;;;;;;;1.84;1.74;;;;;;;23.46;57.24;99885.26;;;;-60
2019/08/07 01:18:09;;;;;;;1.97;1.73;;;;;;;23.46;57.20;99881.22;;;;-56
2019/08/07 01:21:09;;;;;;;1.87;1.71;;;;;;;23.47;57.23;99884.95;;;;-56
2019/08/07 01:24:08;;;;;;;2.05;1.85;;;;;;;23.46;57.22;99887.72;;;;-56
2019/08/07 01:27:09;;;;;;;2.01;1.81;;;;;;;23.46;57.24;99882.16;;;;-50
2019/08/07 01:30:08;;;;;;;2.03;1.85;;;;;;;23.45;57.21;99881.53;;;;-56
2019/08/07 01:33:09;;;;;;;2.66;1.79;;;;;;;23.45;57.23;99880.80;;;;-49
2019/08/07 01:36:08;;;;;;;1.80;1.70;;;;;;;23.45;57.23;99884.49;;;;-51
2019/08/07 01:39:08;;;;;;;1.76;1.66;;;;;;;23.44;57.24;99882.11;;;;-60
2019/08/07 01:42:09;;;;;;;2.05;1.79;;;;;;;23.45;57.23;99871.09;;;;-60
2019/08/07 01:45:09;;;;;;;1.77;1.67;;;;;;;23.45;57.21;99872.37;;;;-51
2019/08/07 01:48:09;;;;;;;1.77;1.67;;;;;;;23.44;57.23;99867.52;;;;-60
2019/08/07 01:51:09;;;;;;;1.99;1.77;;;;;;;23.44;57.24;99863.91;;;;-60
2019/08/07 01:54:08;;;;;;;1.90;1.70;;;;;;;23.44;57.24;99860.95;;;;-50
2019/08/07 01:57:09;;;;;;;1.83;1.73;;;;;;;23.44;57.26;99859.60;;;;-51
2019/08/07 02:00:09;;;;;;;1.82;1.61;;;;;;;23.43;57.25;99853.95;;;;-60
2019/08/07 02:03:09;;;;;;;1.86;1.75;;;;;;;23.44;57.22;99846.05;;;;-60
2019/08/07 02:06:09;;;;;;;1.83;1.72;;;;;;;23.43;57.25;99840.37;;;;-51
2019/08/07 02:09:09;;;;;;;1.96;1.80;;;;;;;23.43;57.26;99833.13;;;;-50
2019/08/07 02:15:30;;;;;;;1.91;1.75;;;;;;;23.43;57.26;99827.41;;;;-56
2019/08/07 02:18:09;;;;;;;2.09;1.81;;;;;;;23.43;57.25;99826.83;;;;-51
2019/08/07 02:21:09;;;;;;;2.01;1.91;;;;;;;23.43;57.24;99811.73;;;;-50
2019/08/07 02:24:09;;;;;;;2.02;1.80;;;;;;;23.43;57.27;99803.14;;;;-56
2019/08/07 02:27:09;;;;;;;2.29;1.72;;;;;;;23.42;57.25;99804.29;;;;-56
2019/08/07 02:30:09;;;;;;;2.02;1.81;;;;;;;23.42;57.26;99804.29;;;;-51
2019/08/07 02:33:09;;;;;;;1.95;1.70;;;;;;;23.42;57.23;99803.63;;;;-50
2019/08/07 02:36:09;;;;;;;1.78;1.68;;;;;;;23.42;57.25;99808.84;;;;-50
2019/08/07 02:39:09;;;;;;;2.10;1.90;;;;;;;23.42;57.25;99804.13;;;;-60
2019/08/07 02:42:09;;;;;;;1.93;1.80;;;;;;;23.41;57.27;99804.70;;;;-51
2019/08/07 02:45:09;;;;;;;1.92;1.80;;;;;;;23.42;57.27;99812.89;;;;-60
2019/08/07 02:48:09;;;;;;;1.80;1.70;;;;;;;23.41;57.27;99814.25;;;;-60
2019/08/07 02:51:09;;;;;;;1.87;1.77;;;;;;;23.42;57.29;99823.51;;;;-50
2019/08/07 02:54:09;;;;;;;1.92;1.82;;;;;;;23.42;57.27;99832.95;;;;-51
2019/08/07 02:57:09;;;;;;;2.01;1.79;;;;;;;23.41;57.27;99828.80;;;;-51
2019/08/07 03:00:09;;;;;;;1.77;1.67;;;;;;;23.41;57.29;99828.23;;;;-57
2019/08/07 03:03:09;;;;;;;2.18;1.86;;;;;;;23.41;57.28;99826.45;;;;-49
2019/08/07 03:06:09;;;;;;;1.80;1.70;;;;;;;23.41;57.26;99827.53;;;;-50
2019/08/07 03:09:09;;;;;;;1.85;1.70;;;;;;;23.41;57.26;99826.52;;;;-51
2019/08/07 03:12:09;;;;;;;1.85;1.71;;;;;;;23.40;57.29;99817.50;;;;-50
2019/08/07 03:15:12;;;;;;;3.05;1.83;;;;;;;23.40;57.28;99813.80;;;;-49
2019/08/07 03:18:30;;;;;;;1.82;1.66;;;;;;;23.40;57.28;99810.42;;;;-50
2019/08/07 03:21:09;;;;;;;2.22;1.62;;;;;;;23.41;57.28;99826.72;;;;-50
2019/08/07 03:24:09;;;;;;;1.75;1.65;;;;;;;23.40;57.31;99828.13;;;;-60
2019/08/07 03:27:12;;;;;;;1.73;1.63;;;;;;;23.40;57.27;99818.92;;;;-60
2019/08/07 03:30:09;;;;;;;1.80;1.70;;;;;;;23.40;57.28;99822.22;;;;-60
2019/08/07 03:33:09;;;;;;;1.80;1.70;;;;;;;23.40;57.30;99817.07;;;;-60
2019/08/07 03:36:09;;;;;;;1.89;1.72;;;;;;;23.39;57.29;99830.12;;;;-51
2019/08/07 03:39:09;;;;;;;1.91;1.81;;;;;;;23.39;57.31;99810.06;;;;-56
2019/08/07 03:42:09;;;;;;;1.75;1.60;;;;;;;23.40;57.24;99809.31;;;;-60
2019/08/07 03:45:09;;;;;;;2.01;1.78;;;;;;;23.39;57.28;99809.33;;;;-60
2019/08/07 03:49:09;;;;;;;1.69;1.59;;;;;;;23.39;57.27;99802.56;;;;-60
2019/08/07 03:52:09;;;;;;;1.76;1.66;;;;;;;23.39;57.27;99813.95;;;;-50
2019/08/07 03:55:09;;;;;;;1.78;1.68;;;;;;;23.39;57.29;99816.04;;;;-51
2019/08/07 03:58:09;;;;;;;1.83;1.69;;;;;;;23.39;57.29;99824.30;;;;-50
2019/08/07 04:01:09;;;;;;;1.89;1.73;;;;;;;23.38;57.32;99834.14;;;;-50
2019/08/07 04:04:09;;;;;;;1.96;1.80;;;;;;;23.39;57.30;99838.45;;;;-60
2019/08/07 04:07:09;;;;;;;1.80;1.70;;;;;;;23.38;57.30;99842.91;;;;-60
2019/08/07 04:10:09;;;;;;;2.03;1.83;;;;;;;23.38;57.31;99842.98;;;;-50
2019/08/07 04:13:09;;;;;;;1.85;1.71;;;;;;;23.38;57.31;99833.47;;;;-60
2019/08/07 04:16:09;;;;;;;2.08;1.79;;;;;;;23.38;57.33;99827.75;;;;-60
2019/08/07 04:19:09;;;;;;;1.80;1.70;;;;;;;23.38;57.30;99814.77;;;;-60
2019/08/07 04:22:09;;;;;;;1.95;1.71;;;;;;;23.38;57.30;99807.45;;;;-51
2019/08/07 04:25:09;;;;;;;1.75;1.65;;;;;;;23.38;57.31;99811.66;;;;-49
2019/08/07 04:28:27;;;;;;;1.66;1.56;;;;;;;23.37;57.33;99803.13;;;;-60
2019/08/07 04:31:17;;;;;;;1.80;1.70;;;;;;;23.37;57.29;99799.92;;;;-60
2019/08/07 04:34:09;;;;;;;1.75;1.65;;;;;;;23.38;57.30;99787.37;;;;-60
2019/08/07 04:37:09;;;;;;;1.67;1.57;;;;;;;23.37;57.33;99787.55;;;;-51
2019/08/07 04:40:09;;;;;;;1.95;1.67;;;;;;;23.37;57.30;99781.89;;;;-51
2019/08/07 04:43:09;;;;;;;1.63;1.53;;;;;;;23.37;57.30;99774.98;;;;-56
2019/08/07 04:46:09;;;;;;;1.82;1.72;;;;;;;23.37;57.27;99772.80;;;;-51
2019/08/07 04:49:09;;;;;;;1.85;1.73;;;;;;;23.36;57.29;99784.56;;;;-51
2019/08/07 04:52:09;;;;;;;1.84;1.74;;;;;;;23.37;57.30;99792.25;;;;-50
2019/08/07 04:55:09;;;;;;;1.89;1.79;;;;;;;23.36;57.29;99797.03;;;;-50
2019/08/07 04:58:09;;;;;;;1.85;1.75;;;;;;;23.37;57.25;99784.83;;;;-56
2019/08/07 05:01:09;;;;;;;1.89;1.79;;;;;;;23.36;57.24;99784.73;;;;-57
2019/08/07 05:04:09;;;;;;;1.75;1.65;;;;;;;23.36;57.26;99789.80;;;;-56
2019/08/07 05:07:09;;;;;;;1.69;1.59;;;;;;;23.35;57.28;99785.55;;;;-57
2019/08/07 05:10:09;;;;;;;1.91;1.73;;;;;;;23.35;57.29;99788.36;;;;-56
2019/08/07 05:13:09;;;;;;;1.80;1.70;;;;;;;23.36;57.26;99787.67;;;;-51
2019/08/07 05:16:09;;;;;;;1.69;1.59;;;;;;;23.36;57.29;99784.58;;;;-60
2019/08/07 05:19:09;;;;;;;2.00;1.80;;;;;;;23.35;57.25;99776.80;;;;-50
2019/08/07 05:22:09;;;;;;;1.70;1.60;;;;;;;23.35;57.25;99769.97;;;;-60
2019/08/07 05:25:09;;;;;;;1.68;1.56;;;;;;;23.35;57.25;99777.81;;;;-56
2019/08/07 05:28:09;;;;;;;1.87;1.72;;;;;;;23.35;57.25;99773.86;;;;-56
2019/08/07 05:31:09;;;;;;;1.89;1.76;;;;;;;23.35;57.27;99777.74;;;;-55
2019/08/07 05:34:09;;;;;;;1.80;1.70;;;;;;;23.35;57.24;99778.14;;;;-56
2019/08/07 05:37:09;;;;;;;1.80;1.70;;;;;;;23.34;57.26;99780.48;;;;-56
2019/08/07 05:40:09;;;;;;;1.69;1.59;;;;;;;23.35;57.28;99791.53;;;;-56
2019/08/07 05:43:09;;;;;;;1.70;1.60;;;;;;;23.34;57.26;99792.95;;;;-50
2019/08/07 05:46:09;;;;;;;1.80;1.70;;;;;;;23.35;57.28;99804.20;;;;-51
2019/08/07 05:49:09;;;;;;;1.77;1.67;;;;;;;23.35;57.29;99805.55;;;;-50
2019/08/07 05:52:09;;;;;;;1.73;1.63;;;;;;;23.35;57.30;99809.56;;;;-50
2019/08/07 05:55:09;;;;;;;1.79;1.69;;;;;;;23.34;57.29;99805.00;;;;-50
2019/08/07 05:58:08;;;;;;;1.80;1.70;;;;;;;23.34;57.25;99802.49;;;;-50
2019/08/07 06:01:09;;;;;;;1.59;1.49;;;;;;;23.34;57.25;99800.53;;;;-56
2019/08/07 06:04:09;;;;;;;1.63;1.53;;;;;;;23.34;57.25;99797.33;;;;-57
2019/08/07 06:07:09;;;;;;;1.75;1.65;;;;;;;23.35;57.22;99798.61;;;;-51
2019/08/07 06:10:09;;;;;;;1.80;1.70;;;;;;;23.35;57.23;99796.85;;;;-51
2019/08/07 06:13:10;;;;;;;1.77;1.67;;;;;;;23.34;57.23;99798.69;;;;-55
2019/08/07 06:16:09;;;;;;;2.24;1.57;;;;;;;23.34;57.23;99798.19;;;;-55
2019/08/07 06:19:09;;;;;;;1.76;1.65;;;;;;;23.34;57.23;99793.03;;;;-57
2019/08/07 06:22:09;;;;;;;1.69;1.59;;;;;;;23.34;57.21;99793.47;;;;-51
2019/08/07 06:25:09;;;;;;;1.73;1.63;;;;;;;23.33;57.23;99804.26;;;;-51
2019/08/07 06:28:09;;;;;;;1.81;1.71;;;;;;;23.34;57.20;99825.08;;;;-56
2019/08/07 06:31:09;;;;;;;1.60;1.50;;;;;;;23.34;57.24;99833.73;;;;-60
2019/08/07 06:34:09;;;;;;;1.78;1.68;;;;;;;23.33;57.22;99831.63;;;;-56
2019/08/07 06:37:09;;;;;;;1.63;1.53;;;;;;;23.33;57.21;99832.06;;;;-56
2019/08/07 06:40:09;;;;;;;1.70;1.60;;;;;;;23.33;57.19;99839.64;;;;-50
2019/08/07 06:43:09;;;;;;;2.03;1.59;;;;;;;23.34;57.22;99854.05;;;;-50
2019/08/07 06:46:09;;;;;;;1.73;1.63;;;;;;;23.33;57.19;99846.45;;;;-50
2019/08/07 06:49:09;;;;;;;1.67;1.57;;;;;;;23.33;57.20;99840.72;;;;-51
2019/08/07 06:52:09;;;;;;;1.85;1.75;;;;;;;23.33;57.22;99834.48;;;;-51
2019/08/07 06:55:09;;;;;;;2.11;1.56;;;;;;;23.33;57.20;99833.21;;;;-51
2019/08/07 06:58:09;;;;;;;2.15;1.76;;;;;;;23.33;57.31;99835.77;;;;-51
2019/08/07 07:01:09;;;;;;;3.62;1.83;;;;;;;23.34;57.39;99825.91;;;;-50
2019/08/07 07:04:09;;;;;;;7.35;2.11;;;;;;;23.36;57.95;99821.55;;;;-57
2019/08/07 07:07:09;;;;;;;5.75;1.97;;;;;;;23.37;58.01;99821.56;;;;-49
2019/08/07 07:10:09;;;;;;;4.85;1.90;;;;;;;23.36;58.30;99831.91;;;;-51
2019/08/07 07:13:09;;;;;;;4.60;1.99;;;;;;;23.37;58.23;99834.63;;;;-55
2019/08/07 07:16:08;;;;;;;3.79;1.77;;;;;;;23.39;58.28;99834.44;;;;-55
2019/08/07 07:19:08;;;;;;;2.95;1.85;;;;;;;23.40;58.34;99842.77;;;;-57
2019/08/07 07:22:09;;;;;;;2.89;2.10;;;;;;;23.42;58.36;99841.37;;;;-50
2019/08/07 07:25:09;;;;;;;5.25;2.74;;;;;;;23.43;59.26;99839.87;;;;-51
2019/08/07 07:28:09;;;;;;;6.25;2.59;;;;;;;23.44;59.12;99836.28;;;;-56
2019/08/07 07:31:09;;;;;;;5.39;2.61;;;;;;;23.46;59.12;99824.52;;;;-52
2019/08/07 07:34:09;;;;;;;5.34;3.11;;;;;;;23.48;59.56;99827.48;;;;-58
2019/08/07 07:37:09;;;;;;;6.05;3.35;;;;;;;23.50;59.44;99832.31;;;;-58
2019/08/07 07:40:09;;;;;;;5.73;3.38;;;;;;;23.52;59.73;99828.24;;;;-57
2019/08/07 07:43:09;;;;;;;5.50;3.57;;;;;;;23.53;59.45;99826.80;;;;-57
2019/08/07 07:46:09;;;;;;;20.31;3.93;;;;;;;23.53;59.56;99827.51;;;;-58
2019/08/07 07:49:09;;;;;;;5.98;3.35;;;;;;;23.56;59.53;99830.33;;;;-57
2019/08/07 07:52:09;;;;;;;4.71;3.49;;;;;;;23.56;59.48;99824.02;;;;-54
2019/08/07 07:55:09;;;;;;;4.80;3.35;;;;;;;23.59;59.28;99828.84;;;;-58
2019/08/07 07:58:09;;;;;;;9.52;3.69;;;;;;;23.59;59.67;99835.17;;;;-56
2019/08/07 08:01:09;;;;;;;5.55;3.45;;;;;;;23.60;59.34;99842.84;;;;-57
2019/08/07 08:04:09;;;;;;;5.37;3.49;;;;;;;23.61;59.39;99852.74;;;;-60
2019/08/07 08:07:09;;;;;;;6.88;3.47;;;;;;;23.63;59.26;99859.25;;;;-57
2019/08/07 08:10:09;;;;;;;7.29;3.43;;;;;;;23.63;59.29;99863.16;;;;-56
2019/08/07 08:13:09;;;;;;;8.03;3.61;;;;;;;23.64;59.32;99865.17;;;;-57
2019/08/07 08:16:08;;;;;;;6.31;3.35;;;;;;;23.65;59.03;99864.71;;;;-56
2019/08/07 08:19:09;;;;;;;5.96;3.47;;;;;;;23.65;58.98;99862.45;;;;-57
2019/08/07 08:22:09;;;;;;;3.87;3.49;;;;;;;23.66;59.06;99864.05;;;;-57
2019/08/07 08:25:09;;;;;;;6.53;3.43;;;;;;;23.66;58.82;99865.47;;;;-51
2019/08/07 08:28:09;;;;;;;4.51;3.39;;;;;;;23.66;58.74;99871.78;;;;-57
2019/08/07 08:31:09;;;;;;;8.53;3.55;;;;;;;23.65;58.92;99864.20;;;;-58
2019/08/07 08:34:09;;;;;;;6.07;3.65;;;;;;;23.66;58.90;99858.73;;;;-50
2019/08/07 08:37:08;;;;;;;5.51;3.22;;;;;;;23.67;58.99;99855.70;;;;-57
2019/08/07 08:40:09;;;;;;;5.59;3.44;;;;;;;23.67;58.85;99860.25;;;;-57
2019/08/07 08:43:09;;;;;;;4.61;3.27;;;;;;;23.69;58.84;99864.68;;;;-58
2019/08/07 08:46:09;;;;;;;5.65;3.31;;;;;;;23.70;58.89;99856.52;;;;-59
2019/08/07 08:49:09;;;;;;;8.87;3.51;;;;;;;23.70;58.87;99858.63;;;;-56
2019/08/07 08:52:09;;;;;;;6.20;3.49;;;;;;;23.72;58.76;99862.04;;;;-50
2019/08/07 08:55:09;;;;;;;5.95;3.33;;;;;;;23.71;58.85;99861.11;;;;-54
2019/08/07 08:58:10;;;;;;;4.07;3.29;;;;;;;23.71;58.77;99862.63;;;;-50
2019/08/07 09:01:09;;;;;;;4.81;3.51;;;;;;;23.72;58.70;99865.23;;;;-56
2019/08/07 09:04:09;;;;;;;5.99;3.29;;;;;;;23.73;58.75;99865.16;;;;-56
2019/08/07 09:07:09;;;;;;;4.20;3.56;;;;;;;23.73;58.73;99861.31;;;;-57
2019/08/07 09:10:09;;;;;;;3.92;3.27;;;;;;;23.74;58.77;99865.78;;;;-52
2019/08/07 09:13:09;;;;;;;4.23;3.38;;;;;;;23.75;58.73;99865.97;;;;-51
2019/08/07 09:16:09;;;;;;;5.33;3.29;;;;;;;23.75;58.66;99859.90;;;;-51
2019/08/07 09:19:09;;;;;;;4.60;3.39;;;;;;;23.75;58.55;99861.91;;;;-50
2019/08/07 09:22:09;;;;;;;5.39;3.17;;;;;;;23.76;58.57;99863.36;;;;-51
2019/08/07 09:25:09;;;;;;;4.67;3.17;;;;;;;23.77;58.63;99854.20;;;;-51
2019/08/07 09:28:09;;;;;;;8.36;3.46;;;;;;;23.78;58.57;99854.80;;;;-51
2019/08/07 09:31:09;;;;;;;5.20;3.38;;;;;;;23.79;58.56;99863.28;;;;-57
2019/08/07 09:34:09;;;;;;;6.27;3.32;;;;;;;23.79;58.51;99865.98;;;;-59
2019/08/07 09:37:08;;;;;;;5.49;3.33;;;;;;;23.79;58.52;99877.95;;;;-58
2019/08/07 09:40:09;;;;;;;6.78;3.44;;;;;;;23.78;58.52;99876.58;;;;-58
2019/08/07 09:43:09;;;;;;;4.14;3.35;;;;;;;23.78;58.58;99885.08;;;;-58
2019/08/07 09:46:09;;;;;;;4.51;3.47;;;;;;;23.77;58.48;99886.81;;;;-56
2019/08/07 09:49:09;;;;;;;4.34;3.49;;;;;;;23.76;58.56;99892.36;;;;-50
2019/08/07 09:52:09;;;;;;;3.73;3.35;;;;;;;23.76;58.53;99898.44;;;;-50
2019/08/07 09:55:09;;;;;;;6.04;3.53;;;;;;;23.76;58.56;99900.63;;;;-50
2019/08/07 09:58:09;;;;;;;5.99;3.37;;;;;;;23.75;58.53;99874.39;;;;-50
2019/08/07 10:01:08;;;;;;;4.87;3.46;;;;;;;23.75;58.55;99862.94;;;;-50
2019/08/07 10:04:09;;;;;;;4.85;3.49;;;;;;;23.74;58.68;99856.50;;;;-58
2019/08/07 10:07:09;;;;;;;5.21;3.54;;;;;;;23.76;58.69;99854.92;;;;-58
2019/08/07 10:10:09;;;;;;;4.33;3.37;;;;;;;23.77;58.75;99855.38;;;;-57
2019/08/07 10:13:09;;;;;;;5.33;3.70;;;;;;;23.77;58.77;99862.86;;;;-51
2019/08/07 10:16:09;;;;;;;6.55;3.56;;;;;;;23.79;58.82;99852.91;;;;-50
2019/08/07 10:19:08;;;;;;;4.47;3.47;;;;;;;23.80;58.72;99833.28;;;;-50
2019/08/07 10:22:09;;;;;;;4.57;3.61;;;;;;;23.80;58.73;99838.27;;;;-50
2019/08/07 10:25:09;;;;;;;4.68;3.29;;;;;;;23.80;58.75;99838.59;;;;-51
2019/08/07 10:28:09;;;;;;;4.25;3.30;;;;;;;23.81;58.76;99840.72;;;;-57
2019/08/07 10:31:09;;;;;;;3.84;3.38;;;;;;;23.80;58.83;99845.92;;;;-61
2019/08/07 10:34:09;;;;;;;3.83;3.38;;;;;;;23.81;58.88;99853.46;;;;-51
2019/08/07 10:37:09;;;;;;;4.32;3.33;;;;;;;23.82;58.78;99853.61;;;;-60
2019/08/07 10:40:08;;;;;;;3.54;3.24;;;;;;;23.82;58.79;99847.38;;;;-58
2019/08/07 10:43:09;;;;;;;4.11;3.48;;;;;;;23.82;58.79;99841.57;;;;-52
2019/08/07 10:46:09;;;;;;;3.71;3.24;;;;;;;23.83;58.78;99853.39;;;;-58
2019/08/07 10:49:09;;;;;;;5.73;3.27;;;;;;;23.84;58.82;99862.92;;;;-52
2019/08/07 10:52:09;;;;;;;3.97;3.36;;;;;;;23.83;58.83;99857.53;;;;-57
2019/08/07 10:55:09;;;;;;;5.23;3.39;;;;;;;23.83;58.84;99859.05;;;;-56
2019/08/07 10:58:09;;;;;;;4.39;3.31;;;;;;;23.85;58.78;99852.77;;;;-59
2019/08/07 11:01:08;;;;;;;5.85;3.40;;;;;;;23.83;58.59;99848.43;;;;-59
2019/08/07 11:04:09;;;;;;;5.59;3.50;;;;;;;23.82;58.58;99846.05;;;;-59
2019/08/07 11:07:09;;;;;;;4.99;3.27;;;;;;;23.82;58.55;99856.58;;;;-59
2019/08/07 11:10:09;;;;;;;4.47;3.31;;;;;;;23.82;58.51;99855.06;;;;-60
2019/08/07 11:13:09;;;;;;;4.54;3.30;;;;;;;23.80;58.55;99854.11;;;;-60
2019/08/07 11:16:09;;;;;;;5.75;3.29;;;;;;;23.81;58.47;99859.09;;;;-58
2019/08/07 11:19:09;;;;;;;4.29;3.10;;;;;;;23.80;58.45;99864.39;;;;-60
2019/08/07 11:22:09;;;;;;;4.40;3.26;;;;;;;23.79;58.40;99868.09;;;;-58
2019/08/07 11:25:08;;;;;;;3.57;3.06;;;;;;;23.79;58.31;99864.21;;;;-57
2019/08/07 11:28:09;;;;;;;5.99;3.00;;;;;;;23.79;58.33;99865.91;;;;-56
2019/08/07 11:31:09;;;;;;;3.78;3.06;;;;;;;23.79;58.28;99865.30;;;;-57
2019/08/07 11:34:09;;;;;;;3.55;3.23;;;;;;;23.79;58.23;99872.22;;;;-57
2019/08/07 11:37:09;;;;;;;4.41;3.01;;;;;;;23.78;58.25;99877.16;;;;-51
2019/08/07 11:40:09;;;;;;;3.63;2.89;;;;;;;23.78;58.20;99884.06;;;;-55
2019/08/07 11:43:09;;;;;;;3.88;3.10;;;;;;;23.77;58.17;99888.50;;;;-49
2019/08/07 11:46:09;;;;;;;4.03;3.24;;;;;;;23.76;58.11;99884.27;;;;-58
2019/08/07 11:49:09;;;;;;;3.59;3.00;;;;;;;23.76;58.11;99887.63;;;;-58
2019/08/07 11:52:09;;;;;;;4.68;3.07;;;;;;;23.75;58.05;99885.69;;;;-58
2019/08/07 11:55:09;;;;;;;3.26;2.96;;;;;;;23.76;58.08;99883.52;;;;-57
2019/08/07 11:58:09;;;;;;;3.25;2.95;;;;;;;23.75;58.01;99886.03;;;;-49
2019/08/07 12:01:09;;;;;;;3.11;2.85;;;;;;;23.75;57.99;99889.06;;;;-48
2019/08/07 12:04:09;;;;;;;3.29;2.99;;;;;;;23.75;57.98;99892.94;;;;-49
2019/08/07 12:07:08;;;;;;;3.39;3.09;;;;;;;23.75;57.94;99886.87;;;;-57
2019/08/07 12:10:08;;;;;;;3.11;2.83;;;;;;;23.74;57.93;99884.33;;;;-57
2019/08/07 12:13:09;;;;;;;3.35;2.96;;;;;;;23.74;57.91;99881.47;;;;-57
2019/08/07 12:16:09;;;;;;;3.31;3.01;;;;;;;23.74;57.91;99879.17;;;;-56
2019/08/07 12:19:09;;;;;;;4.45;3.05;;;;;;;23.74;57.88;99885.00;;;;-55
2019/08/07 12:22:09;;;;;;;3.22;2.89;;;;;;;23.73;57.86;99889.13;;;;-56
2019/08/07 12:25:09;;;;;;;3.37;2.77;;;;;;;23.74;57.85;99886.42;;;;-50
2019/08/07 12:28:09;;;;;;;3.28;2.98;;;;;;;23.74;57.81;99882.38;;;;-51
2019/08/07 12:31:09;;;;;;;3.04;2.74;;;;;;;23.74;57.79;99882.21;;;;-51
2019/08/07 12:34:09;;;;;;;3.15;2.81;;;;;;;23.72;58.03;99889.52;;;;-50
2019/08/07 12:37:09;;;;;;;6.73;2.91;;;;;;;23.74;58.51;99894.52;;;;-55
2019/08/07 12:40:09;;;;;;;5.08;3.05;;;;;;;23.74;58.40;99897.14;;;;-49
2019/08/07 12:43:09;;;;;;;12.99;3.20;;;;;;;23.75;58.72;99903.97;;;;-52
2019/08/07 12:46:09;;;;;;;5.67;3.10;;;;;;;23.76;58.90;99908.38;;;;-52
2019/08/07 12:49:09;;;;;;;11.34;3.14;;;;;;;23.76;58.97;99903.33;;;;-48
2019/08/07 12:52:09;;;;;;;6.34;2.93;;;;;;;23.79;59.07;99896.09;;;;-49
2019/08/07 12:55:09;;;;;;;7.02;3.09;;;;;;;23.79;58.92;99896.77;;;;-51
2019/08/07 12:58:09;;;;;;;4.89;2.85;;;;;;;23.81;59.12;99900.68;;;;-55
2019/08/07 13:01:09;;;;;;;5.02;2.86;;;;;;;23.82;59.29;99902.34;;;;-50
2019/08/07 13:04:09;;;;;;;5.47;2.82;;;;;;;23.83;59.17;99904.59;;;;-51
2019/08/07 13:07:09;;;;;;;5.37;2.73;;;;;;;23.84;59.10;99902.98;;;;-50
2019/08/07 13:10:08;;;;;;;10.61;2.90;;;;;;;23.85;59.01;99909.58;;;;-51
2019/08/07 13:13:08;;;;;;;5.87;2.75;;;;;;;23.86;59.15;99911.70;;;;-57
2019/08/07 13:16:09;;;;;;;5.54;3.10;;;;;;;23.87;59.03;99914.75;;;;-57
2019/08/07 13:19:09;;;;;;;4.07;3.10;;;;;;;23.87;59.09;99909.88;;;;-50
2019/08/07 13:22:09;;;;;;;7.29;3.09;;;;;;;23.88;59.03;99915.03;;;;-51
2019/08/07 13:25:09;;;;;;;6.96;2.83;;;;;;;23.87;58.95;99913.77;;;;-57
2019/08/07 13:28:09;;;;;;;3.99;2.77;;;;;;;23.88;58.87;99914.70;;;;-52
2019/08/07 13:31:09;;;;;;;4.97;2.93;;;;;;;23.87;58.87;99908.95;;;;-52
2019/08/07 13:34:09;;;;;;;8.53;2.88;;;;;;;23.86;58.90;99912.73;;;;-53
2019/08/07 13:37:08;;;;;;;4.53;2.83;;;;;;;23.87;58.87;99909.78;;;;-57
2019/08/07 13:40:08;;;;;;;5.53;2.69;;;;;;;23.89;58.84;99913.62;;;;-52
2019/08/07 13:43:09;;;;;;;6.37;2.75;;;;;;;23.90;58.80;99913.05;;;;-56
2019/08/07 13:46:09;;;;;;;5.53;2.61;;;;;;;23.89;58.73;99914.23;;;;-50
2019/08/07 13:49:09;;;;;;;5.61;2.74;;;;;;;23.90;58.79;99909.83;;;;-51
2019/08/07 13:52:09;;;;;;;4.08;2.57;;;;;;;23.91;58.64;99919.91;;;;-50
2019/08/07 13:55:09;;;;;;;5.53;2.58;;;;;;;23.92;58.69;99927.85;;;;-51
2019/08/07 13:58:08;;;;;;;4.92;2.70;;;;;;;23.92;58.75;99927.07;;;;-51
2019/08/07 14:01:09;;;;;;;4.41;2.78;;;;;;;23.93;58.72;99931.58;;;;-58
2019/08/07 14:04:09;;;;;;;5.41;2.64;;;;;;;23.93;58.69;99930.91;;;;-53
2019/08/07 14:07:09;;;;;;;4.63;2.63;;;;;;;23.93;58.67;99929.95;;;;-51
2019/08/07 14:10:09;;;;;;;4.46;2.47;;;;;;;23.93;58.68;99931.91;;;;-57
2019/08/07 14:13:09;;;;;;;3.81;2.55;;;;;;;23.94;58.56;99925.84;;;;-57
2019/08/07 14:16:09;;;;;;;6.86;2.71;;;;;;;23.94;58.63;99926.70;;;;-53
2019/08/07 14:19:08;;;;;;;5.71;2.79;;;;;;;23.94;58.80;99924.59;;;;-53
2019/08/07 14:22:08;;;;;;;4.55;2.39;;;;;;;23.93;58.87;99929.97;;;;-51
2019/08/07 14:25:08;;;;;;;4.87;2.50;;;;;;;23.95;58.76;99926.39;;;;-57
2019/08/07 14:28:09;;;;;;;4.90;2.46;;;;;;;23.96;58.72;99923.94;;;;-54
2019/08/07 14:31:09;;;;;;;3.29;2.38;;;;;;;23.97;58.80;99922.34;;;;-53
2019/08/07 14:34:09;;;;;;;4.55;2.41;;;;;;;23.97;58.91;99925.31;;;;-56
2019/08/07 14:37:09;;;;;;;6.39;2.53;;;;;;;23.97;58.87;99925.47;;;;-57
2019/08/07 14:40:08;;;;;;;4.83;2.37;;;;;;;23.98;58.96;99925.50;;;;-56
2019/08/07 14:43:09;;;;;;;5.47;2.53;;;;;;;23.99;59.00;99930.81;;;;-56
2019/08/07 14:46:08;;;;;;;5.10;2.45;;;;;;;23.99;58.94;99935.13;;;;-58
2019/08/07 14:49:09;;;;;;;4.33;2.23;;;;;;;24.00;59.03;99936.39;;;;-57
2019/08/07 14:52:09;;;;;;;3.95;2.44;;;;;;;23.97;58.92;99939.30;;;;-57
2019/08/07 14:55:09;;;;;;;9.79;2.55;;;;;;;23.96;58.94;99935.41;;;;-57
2019/08/07 14:58:09;;;;;;;4.05;2.35;;;;;;;23.96;58.80;99942.77;;;;-57
2019/08/07 15:01:08;;;;;;;4.75;2.31;;;;;;;23.95;58.77;99944.67;;;;-57
2019/08/07 15:04:09;;;;;;;4.68;2.41;;;;;;;23.95;58.75;99948.72;;;;-57
2019/08/07 15:07:08;;;;;;;4.83;2.56;;;;;;;23.93;58.63;99950.36;;;;-57
2019/08/07 15:10:08;;;;;;;5.69;2.35;;;;;;;23.94;58.63;99953.09;;;;-57
2019/08/07 15:13:09;;;;;;;3.81;2.30;;;;;;;23.93;58.50;99960.48;;;;-57
2019/08/07 15:16:09;;;;;;;4.37;2.13;;;;;;;23.93;58.54;99968.76;;;;-58
2019/08/07 15:19:09;;;;;;;2.99;2.15;;;;;;;23.91;58.50;99968.65;;;;-57
2019/08/07 15:22:08;;;;;;;3.15;2.24;;;;;;;23.91;58.40;99958.70;;;;-57
2019/08/07 15:25:08;;;;;;;3.51;2.18;;;;;;;23.91;58.40;99948.47;;;;-56
2019/08/07 15:28:09;;;;;;;4.95;2.34;;;;;;;23.91;58.35;99946.36;;;;-57
2019/08/07 15:31:08;;;;;;;4.25;2.31;;;;;;;23.89;58.44;99951.23;;;;-53
2019/08/07 15:34:09;;;;;;;2.41;2.21;;;;;;;23.90;58.50;99948.70;;;;-58
2019/08/07 15:37:09;;;;;;;6.27;2.29;;;;;;;23.90;58.47;99945.77;;;;-60
2019/08/07 15:40:09;;;;;;;4.47;2.37;;;;;;;23.89;58.45;99942.39;;;;-59
2019/08/07 15:43:09;;;;;;;3.77;2.28;;;;;;;23.90;58.44;99940.53;;;;-54
2019/08/07 15:46:09;;;;;;;3.44;2.23;;;;;;;23.89;58.46;99944.16;;;;-54
2019/08/07 15:49:08;;;;;;;3.94;2.36;;;;;;;23.88;58.47;99942.09;;;;-54
2019/08/07 15:52:08;;;;;;;4.56;2.27;;;;;;;23.86;58.54;99948.15;;;;-58
2019/08/07 15:55:08;;;;;;;5.57;2.37;;;;;;;23.88;58.60;99948.93;;;;-60
2019/08/07 15:58:09;;;;;;;4.63;2.43;;;;;;;23.89;58.65;99950.06;;;;-58
2019/08/07 16:01:09;;;;;;;6.97;2.30;;;;;;;23.88;58.61;99947.67;;;;-56
2019/08/07 16:04:09;;;;;;;4.69;2.32;;;;;;;23.89;58.53;99951.23;;;;-56
2019/08/07 16:07:09;;;;;;;6.07;2.41;;;;;;;23.88;58.53;99947.75;;;;-56
2019/08/07 16:10:08;;;;;;;5.23;2.16;;;;;;;23.88;58.54;99938.57;;;;-57
2019/08/07 16:13:09;;;;;;;4.09;2.28;;;;;;;23.88;58.50;99931.91;;;;-52
2019/08/07 16:16:08;;;;;;;5.99;2.32;;;;;;;23.87;58.39;99919.13;;;;-57
2019/08/07 16:19:09;;;;;;;3.71;2.10;;;;;;;23.86;58.41;99915.91;;;;-56
2019/08/07 16:22:08;;;;;;;4.79;2.16;;;;;;;23.86;58.40;99924.45;;;;-57
2019/08/07 16:25:09;;;;;;;3.87;2.26;;;;;;;23.86;58.35;99930.68;;;;-56
2019/08/07 16:28:09;;;;;;;4.99;2.31;;;;;;;23.86;58.24;99934.13;;;;-53
2019/08/07 16:31:08;;;;;;;3.17;2.05;;;;;;;23.85;58.26;99943.31;;;;-52
2019/08/07 16:34:09;;;;;;;3.40;2.21;;;;;;;23.86;58.27;99940.81;;;;-53
2019/08/07 16:37:09;;;;;;;3.65;2.14;;;;;;;23.84;58.37;99944.30;;;;-50
2019/08/07 16:40:08;;;;;;;5.69;2.29;;;;;;;23.86;58.36;99953.45;;;;-51
2019/08/07 16:43:08;;;;;;;2.40;2.03;;;;;;;23.87;58.44;99954.23;;;;-52
2019/08/07 16:46:08;;;;;;;2.98;2.04;;;;;;;23.90;58.38;99957.30;;;;-52
2019/08/07 16:49:09;;;;;;;5.75;2.22;;;;;;;23.90;58.38;99953.35;;;;-51
2019/08/07 16:52:09;;;;;;;5.02;2.39;;;;;;;23.91;58.39;99951.86;;;;-51
2019/08/07 16:55:09;;;;;;;3.65;2.20;;;;;;;23.91;58.47;99953.53;;;;-50
2019/08/07 16:58:09;;;;;;;2.79;2.00;;;;;;;23.92;58.50;99954.06;;;;-50